Ana Sayfa
METAR-TAF:

METAR-TAF

Havaalanları :

Sisam, Yunanistan

Enlem: 37-42N, Boylam: 026-55E, yükseklik: 2 m

Güncel hava durumu gözlemi

Rapor saat 07:50 UTC de 35 dakika önce yapıldı.
Rüzgar kuzeydoğudan 8 kt
Sıcaklık 19°C
Nem 73%
Basınç 1015 hPa
Görüş mesafesi 10 km veya daha fazla
1500 m altında bulut yok ve kümülonimbus yok

METAR: LGSM 220750Z 04008KT CAVOK 19/14 Q1015

Saat: 11:25 (08:25 UTC)

Tahmin

Rapor saat 05:00 UTC de 3 saat ve 25 dakika önce yapıldı.
Ayın 22'si saat 06 UTC'den ayın 22'si saat 15 UTC'ye kadar geçerli Tahmin
Rüzgar kuzeydan 10 kt
Görüş mesafesi 10 km veya daha fazla
1800 ft yükseklikte az bulutlu

TAF: LGSM 220500Z 2206/2215 36010KT 9999 FEW018

4.000'den fazla havaalanı için hava durumu gözlemleri ve tahminleri (METAR ve TAF raporları).

Kullanılabilir istasyonlar harita üzerinde sarı ve kırmızı noktalarla gösterilir.

İstasyonun adını görmek için fareyi noktanın üzerinde gezdirin.

Sonrasında hava gözlem ve tahminlerini görmek için tıklayın.

Haritayı değiştirmek için: yaklaştırmak için siyah artı işaretli yeşil düğmeye ve uzaklaştırmak için de eksi işaretli düğmeye hızla tıklayın; bitişik haritalar için yeşil okları kullanın.


METAR-TAF: